KCEW/CEW METAR and TAF weather

Enter ICAO airport designator
Station Type Date Time Source
KCEW METAR 2018/07/19 06:53 UTC NOAA

KCEW 190653Z AUTO 00000KT 8SM CLR 24/23 A2991 RMK AO2 SLP124 T02390228


Station Type Date Time Source
KCEW Decoded METAR 2018/07/19 06:53 UTC NOAA

CRESTVIEW SIKES AIRPORT, FL, United States (KCEW) 30-46N 086-31W 55M
Jul 19, 2018 - 02:53 AM EDT / 2018.07.19 0653 UTC
Wind: Calm:0
Visibility: 8 mile(s):0
Sky conditions: clear
Temperature: 75.0 F (23.9 C)
Dew Point: 73.0 F (22.8 C)
Relative Humidity: 93%
Pressure (altimeter): 29.91 in. Hg (1012 hPa)
ob: KCEW 190653Z AUTO 00000KT 8SM CLR 24/23 A2991 RMK AO2 SLP124 T02390228
cycle: 7

Station Type Date Time Source
KCEW TAF UTC NOAA

Error!


Example: see airport list